Time;durP1;ratioP1;P1;durP2;ratioP2;P2;SDS_P1;SDS_P2;PMS_P1;PMS_P2;Temp;Humidity;BMP_temperature;BMP_pressure;BME280_temperature;BME280_humidity;BME280_pressure;Samples;Min_cycle;Max_cycle;Signal;HPM_P1;HPM_P2
2022/01/07 00:00:16;;;;;;;27.30;6.70;;;1.00;99.90;;;;;;5011671;28;20038;-57
2022/01/07 00:02:44;;;;;;;24.40;6.65;;;1.10;99.90;;;;;;5011056;28;20026;-59
2022/01/07 00:05:11;;;;;;;22.95;6.68;;;1.10;99.90;;;;;;5011532;28;20430;-59
2022/01/07 00:07:37;;;;;;;18.88;6.43;;;1.00;99.90;;;;;;5010897;28;20504;-57
2022/01/07 00:10:04;;;;;;;24.58;7.20;;;1.00;99.90;;;;;;5010449;28;20037;-59
2022/01/07 00:12:29;;;;;;;21.08;7.53;;;1.00;99.90;;;;;;5019888;28;20034;-58
2022/01/07 00:14:55;;;;;;;27.13;8.48;;;0.90;99.90;;;;;;5018360;28;20231;-59
2022/01/07 00:17:20;;;;;;;22.35;8.07;;;0.90;99.90;;;;;;5023618;28;20048;-58
2022/01/07 00:19:46;;;;;;;21.30;8.80;;;0.90;99.90;;;;;;5006097;28;20120;-58
2022/01/07 00:22:12;;;;;;;20.42;7.90;;;0.90;99.90;;;;;;5026861;28;20068;-56
2022/01/07 00:24:37;;;;;;;24.08;7.57;;;0.90;99.90;;;;;;5024304;28;20045;-59
2022/01/07 00:27:07;;;;;;;18.90;7.38;;;0.90;99.90;;;;;;5024825;28;20084;-59
2022/01/07 00:29:33;;;;;;;19.23;7.18;;;0.90;99.90;;;;;;5025458;28;20075;-61
2022/01/07 00:31:58;;;;;;;21.23;7.70;;;0.90;99.90;;;;;;5014467;28;20030;-59
2022/01/07 00:34:24;;;;;;;21.48;6.75;;;0.80;99.90;;;;;;4994023;28;20599;-59
2022/01/07 00:36:49;;;;;;;23.23;7.45;;;0.80;99.90;;;;;;5009329;28;20087;-60
2022/01/07 00:39:15;;;;;;;26.38;7.53;;;0.90;99.90;;;;;;5008882;28;20088;-59
2022/01/07 00:41:40;;;;;;;19.65;6.60;;;0.80;99.90;;;;;;5011005;28;20034;-59
2022/01/07 00:44:07;;;;;;;29.17;6.95;;;0.90;99.90;;;;;;5011168;28;20030;-59
2022/01/07 00:46:32;;;;;;;17.92;6.53;;;0.90;99.90;;;;;;5011216;28;20030;-60
2022/01/07 00:48:58;;;;;;;30.23;8.18;;;0.90;99.90;;;;;;5009101;28;20037;-60
2022/01/07 00:51:24;;;;;;;18.05;6.43;;;0.90;99.90;;;;;;5004673;28;20141;-58
2022/01/07 00:53:49;;;;;;;19.77;7.22;;;0.90;99.90;;;;;;5005613;28;20037;-58
2022/01/07 00:56:15;;;;;;;16.83;6.82;;;0.90;99.90;;;;;;5005922;28;20052;-60
2022/01/07 00:58:40;;;;;;;21.63;6.97;;;0.90;99.90;;;;;;5011038;28;20092;-60
2022/01/07 01:01:06;;;;;;;17.63;6.85;;;0.90;99.90;;;;;;5001445;28;20069;-60
2022/01/07 01:03:32;;;;;;;24.13;7.38;;;0.90;99.90;;;;;;5010731;28;20022;-58
2022/01/07 01:05:58;;;;;;;20.45;6.78;;;0.90;99.90;;;;;;5007850;28;20036;-59
2022/01/07 01:08:27;;;;;;;21.70;6.65;;;0.90;99.90;;;;;;5011639;28;20403;-59
2022/01/07 01:10:53;;;;;;;27.48;8.30;;;0.90;99.90;;;;;;5009250;28;20116;-60
2022/01/07 01:13:19;;;;;;;18.20;6.85;;;0.90;99.90;;;;;;5008386;28;20221;-52
2022/01/07 01:15:45;;;;;;;27.73;7.68;;;0.90;99.90;;;;;;5009456;28;20144;-58
2022/01/07 01:18:11;;;;;;;17.02;7.28;;;0.90;99.90;;;;;;5010094;28;20180;-58
2022/01/07 01:20:37;;;;;;;22.60;7.57;;;0.90;99.90;;;;;;5019338;28;20033;-61
2022/01/07 01:23:02;;;;;;;19.45;6.90;;;0.90;99.90;;;;;;5008802;28;20373;-59
2022/01/07 01:25:28;;;;;;;25.15;7.30;;;0.90;99.90;;;;;;5002827;28;20038;-59
2022/01/07 01:27:57;;;;;;;14.90;6.43;;;1.00;99.90;;;;;;5010669;28;20049;-58
2022/01/07 01:30:27;;;;;;;24.42;7.53;;;1.00;99.90;;;;;;5006990;28;20057;-60
2022/01/07 01:32:53;;;;;;;24.23;8.45;;;1.00;99.90;;;;;;5009920;28;20038;-60
2022/01/07 01:35:19;;;;;;;19.60;6.60;;;1.10;99.90;;;;;;5010594;28;20052;-60
2022/01/07 01:37:46;;;;;;;25.50;6.90;;;1.10;99.90;;;;;;5012455;28;20836;-60
2022/01/07 01:40:13;;;;;;;18.65;6.05;;;1.10;99.90;;;;;;5007376;28;20041;-59
2022/01/07 01:42:39;;;;;;;15.68;5.85;;;1.10;99.90;;;;;;5011459;28;20131;-59
2022/01/07 01:45:07;;;;;;;12.10;6.72;;;1.10;99.90;;;;;;5013664;28;20034;-59
2022/01/07 01:47:33;;;;;;;16.70;6.68;;;1.20;99.90;;;;;;5013531;28;20030;-55
2022/01/07 01:49:59;;;;;;;26.55;8.30;;;1.20;99.90;;;;;;5010933;28;20404;-60
2022/01/07 01:52:24;;;;;;;25.85;7.28;;;1.20;99.90;;;;;;5010071;28;20406;-59
2022/01/07 01:54:50;;;;;;;17.30;6.88;;;1.20;99.90;;;;;;5007120;28;20037;-59
2022/01/07 01:57:15;;;;;;;19.48;6.53;;;1.30;99.90;;;;;;5008323;28;20484;-60
2022/01/07 01:59:41;;;;;;;19.52;6.18;;;1.30;99.90;;;;;;5008655;28;20079;-60
2022/01/07 02:02:07;;;;;;;19.02;6.05;;;1.30;99.90;;;;;;5008568;28;20030;-60
2022/01/07 02:04:33;;;;;;;21.10;5.93;;;1.30;99.90;;;;;;5011374;28;20030;-60
2022/01/07 02:06:59;;;;;;;20.20;6.60;;;1.30;99.90;;;;;;5006825;28;20017;-58
2022/01/07 02:09:33;;;;;;;21.10;6.50;;;1.30;99.90;;;;;;5009835;28;20534;-60
2022/01/07 02:11:59;;;;;;;21.77;6.85;;;1.40;99.90;;;;;;5009600;28;20085;-58
2022/01/07 02:14:25;;;;;;;17.65;6.03;;;1.40;99.90;;;;;;5022713;28;20037;-58
2022/01/07 02:16:50;;;;;;;16.85;5.90;;;1.50;99.90;;;;;;5008217;28;20076;-58
2022/01/07 02:19:16;;;;;;;18.48;8.00;;;1.50;99.90;;;;;;5007985;28;20061;-56
2022/01/07 02:21:41;;;;;;;17.42;6.20;;;1.50;99.90;;;;;;5013275;28;20022;-58
2022/01/07 02:24:07;;;;;;;21.50;6.88;;;1.60;99.90;;;;;;5019937;28;20105;-58
2022/01/07 02:26:34;;;;;;;25.48;7.30;;;1.50;99.90;;;;;;5009566;28;20034;-60
2022/01/07 02:29:01;;;;;;;17.75;7.18;;;1.60;99.90;;;;;;5009552;28;20038;-59
2022/01/07 02:31:27;;;;;;;16.50;5.55;;;1.60;99.90;;;;;;5011647;28;20109;-60
2022/01/07 02:33:53;;;;;;;17.30;6.20;;;1.60;99.90;;;;;;5013588;28;20082;-57
2022/01/07 02:36:18;;;;;;;13.35;5.40;;;1.70;99.90;;;;;;5005679;28;20018;-60
2022/01/07 02:38:44;;;;;;;31.48;6.97;;;1.60;99.90;;;;;;5006331;28;20038;-58
2022/01/07 02:41:10;;;;;;;18.88;5.80;;;1.70;99.90;;;;;;5012961;28;20022;-59
2022/01/07 02:43:35;;;;;;;19.38;6.22;;;1.70;99.90;;;;;;5011612;28;20108;-58
2022/01/07 02:46:01;;;;;;;15.35;6.45;;;1.70;99.90;;;;;;5013460;28;20390;-58
2022/01/07 02:48:27;;;;;;;15.65;5.57;;;1.70;99.90;;;;;;5011685;28;20368;-60
2022/01/07 02:50:54;;;;;;;14.25;5.45;;;1.70;99.90;;;;;;5013726;28;20057;-57
2022/01/07 02:53:19;;;;;;;15.52;5.18;;;1.70;99.90;;;;;;5012119;28;20041;-60
2022/01/07 02:55:45;;;;;;;22.85;7.63;;;1.70;99.90;;;;;;5013513;28;20063;-59
2022/01/07 02:58:11;;;;;;;13.38;5.03;;;1.70;99.90;;;;;;5012142;28;20509;-59
2022/01/07 03:00:37;;;;;;;13.27;5.15;;;1.70;99.90;;;;;;5013375;28;20387;-59
2022/01/07 03:03:04;;;;;;;17.67;4.93;;;1.70;99.90;;;;;;5009667;28;20748;-58
2022/01/07 03:05:30;;;;;;;14.63;5.38;;;1.80;99.90;;;;;;5004483;28;20034;-60
2022/01/07 03:07:56;;;;;;;14.13;5.13;;;1.80;99.90;;;;;;5006921;28;20030;-59
2022/01/07 03:10:26;;;;;;;8.18;4.25;;;1.80;99.90;;;;;;5012752;28;20503;-60
2022/01/07 03:12:53;;;;;;;16.63;4.80;;;1.80;99.90;;;;;;5012237;28;20022;-60
2022/01/07 03:15:18;;;;;;;17.98;4.43;;;1.80;99.90;;;;;;5009778;28;20515;-58
2022/01/07 03:17:44;;;;;;;13.30;5.13;;;1.80;99.90;;;;;;5014382;28;20026;-58
2022/01/07 03:20:15;;;;;;;11.88;4.30;;;1.80;99.90;;;;;;5022589;28;20514;-60
2022/01/07 03:22:41;;;;;;;17.63;4.80;;;1.90;99.90;;;;;;5013275;28;20018;-60
2022/01/07 03:25:08;;;;;;;13.82;4.35;;;1.90;99.90;;;;;;5012468;28;20026;-58
2022/01/07 03:27:34;;;;;;;10.82;4.88;;;1.90;99.90;;;;;;5010158;28;20073;-58
2022/01/07 03:30:00;;;;;;;8.40;3.95;;;1.90;99.90;;;;;;5013021;28;20431;-57
2022/01/07 03:32:26;;;;;;;16.20;4.82;;;2.00;99.90;;;;;;5008904;28;20061;-60
2022/01/07 03:34:52;;;;;;;17.75;4.30;;;2.00;99.90;;;;;;5004061;28;20057;-59
2022/01/07 03:37:18;;;;;;;15.45;5.15;;;2.00;99.90;;;;;;5003995;28;20061;-59
2022/01/07 03:39:44;;;;;;;13.98;4.20;;;2.00;99.90;;;;;;5006234;28;20036;-59
2022/01/07 03:42:10;;;;;;;11.95;3.30;;;2.00;99.90;;;;;;5006043;28;20030;-59
2022/01/07 03:44:36;;;;;;;13.73;4.07;;;2.00;99.90;;;;;;5011115;28;20030;-58
2022/01/07 03:47:02;;;;;;;7.97;3.92;;;2.00;99.90;;;;;;5008702;28;20022;-59
2022/01/07 03:49:27;;;;;;;14.35;4.35;;;1.90;99.90;;;;;;5010523;28;20104;-60
2022/01/07 03:51:53;;;;;;;12.40;3.83;;;1.90;99.90;;;;;;5004735;28;20157;-59
2022/01/07 03:54:18;;;;;;;11.75;4.03;;;1.90;99.90;;;;;;5006250;28;20060;-58
2022/01/07 03:56:44;;;;;;;10.18;4.22;;;1.80;99.90;;;;;;5008424;28;20034;-59
2022/01/07 03:59:09;;;;;;;11.35;4.07;;;1.80;99.90;;;;;;4999889;28;20049;-60
2022/01/07 04:01:35;;;;;;;12.23;4.28;;;1.80;99.90;;;;;;5010767;28;20033;-60
2022/01/07 04:04:00;;;;;;;14.20;4.75;;;1.70;99.90;;;;;;5010925;28;20032;-59
2022/01/07 04:06:26;;;;;;;10.52;3.88;;;1.70;99.90;;;;;;5003029;28;20028;-58
2022/01/07 04:08:52;;;;;;;13.63;4.28;;;1.60;99.90;;;;;;5004156;28;20482;-60
2022/01/07 04:11:17;;;;;;;17.08;5.43;;;1.60;99.90;;;;;;5009338;28;20475;-60
2022/01/07 04:13:44;;;;;;;14.00;4.32;;;1.60;99.90;;;;;;5001462;28;20022;-60
2022/01/07 04:16:10;;;;;;;13.73;5.05;;;1.60;99.90;;;;;;5010151;28;20053;-60
2022/01/07 04:18:36;;;;;;;18.92;4.35;;;1.60;99.90;;;;;;5000544;28;20022;-56
2022/01/07 04:21:03;;;;;;;14.40;5.03;;;1.60;99.90;;;;;;5004789;28;20752;-58
2022/01/07 04:23:28;;;;;;;17.42;5.07;;;1.50;99.90;;;;;;5008250;28;20064;-60
2022/01/07 04:25:54;;;;;;;8.00;4.32;;;1.60;99.90;;;;;;5009443;28;20450;-59
2022/01/07 04:28:20;;;;;;;17.33;5.28;;;1.50;99.90;;;;;;5011387;28;20084;-59
2022/01/07 04:30:46;;;;;;;13.43;4.85;;;1.50;99.90;;;;;;5007556;28;20034;-60
2022/01/07 04:33:14;;;;;;;15.52;5.25;;;1.50;99.90;;;;;;5001289;28;20037;-60
2022/01/07 04:35:42;;;;;;;17.70;5.00;;;1.50;99.90;;;;;;5004409;28;20026;-60
2022/01/07 04:38:09;;;;;;;12.02;4.63;;;1.50;99.90;;;;;;5009467;28;20798;-60
2022/01/07 04:40:35;;;;;;;9.45;4.65;;;1.50;99.90;;;;;;5001512;28;20127;-58
2022/01/07 04:43:02;;;;;;;14.88;4.97;;;1.40;99.90;;;;;;5008919;28;20033;-60
2022/01/07 04:45:28;;;;;;;9.82;4.35;;;1.40;99.90;;;;;;5011192;28;20484;-58
2022/01/07 04:47:54;;;;;;;22.10;5.65;;;1.40;99.90;;;;;;5006768;28;20034;-58
2022/01/07 04:50:21;;;;;;;15.13;4.60;;;1.40;99.90;;;;;;5003546;28;20042;-58
2022/01/07 04:52:47;;;;;;;11.43;4.70;;;1.40;99.90;;;;;;5006351;28;20484;-60
2022/01/07 04:55:18;;;;;;;16.42;5.13;;;1.40;99.90;;;;;;5001241;28;20058;-60
2022/01/07 04:57:45;;;;;;;8.65;4.65;;;1.40;99.90;;;;;;4999591;28;20038;-59
2022/01/07 05:00:12;;;;;;;13.20;5.70;;;1.40;99.90;;;;;;5001033;28;20026;-60
2022/01/07 05:02:38;;;;;;;12.57;4.32;;;1.40;99.90;;;;;;5009249;28;20029;-58
2022/01/07 05:05:04;;;;;;;16.23;4.57;;;1.40;99.90;;;;;;4998563;28;20062;-58
2022/01/07 05:07:29;;;;;;;13.73;5.18;;;1.50;99.90;;;;;;5004651;28;20033;-59
2022/01/07 05:09:55;;;;;;;19.00;5.57;;;1.50;99.90;;;;;;5009901;28;20029;-57
2022/01/07 05:12:20;;;;;;;10.15;4.82;;;1.50;99.90;;;;;;5001859;28;20453;-59
2022/01/07 05:14:46;;;;;;;13.57;4.80;;;1.50;99.90;;;;;;5008201;28;20038;-60
2022/01/07 05:17:11;;;;;;;13.70;4.45;;;1.50;99.90;;;;;;5008151;28;20034;-60
2022/01/07 05:19:37;;;;;;;13.27;5.60;;;1.40;99.90;;;;;;5010412;28;20033;-59
2022/01/07 05:22:03;;;;;;;22.33;6.40;;;1.40;99.90;;;;;;5010241;28;20109;-60
2022/01/07 05:24:28;;;;;;;10.63;4.20;;;1.40;99.90;;;;;;5009115;28;20058;-59
2022/01/07 05:26:54;;;;;;;12.25;4.45;;;1.40;99.90;;;;;;5004924;28;20033;-60
2022/01/07 05:29:20;;;;;;;15.70;5.28;;;1.40;99.90;;;;;;5005407;28;20098;-60
2022/01/07 05:31:45;;;;;;;11.38;5.00;;;1.40;99.90;;;;;;5003502;28;20045;-60
2022/01/07 05:34:11;;;;;;;13.70;5.03;;;1.40;99.90;;;;;;5001857;28;20026;-60
2022/01/07 05:36:38;;;;;;;13.73;4.80;;;1.40;99.90;;;;;;5000834;28;20057;-60
2022/01/07 05:39:05;;;;;;;25.02;6.25;;;1.40;99.90;;;;;;5003981;28;20559;-60
2022/01/07 05:41:31;;;;;;;20.55;4.97;;;1.50;99.90;;;;;;5006747;28;20018;-58
2022/01/07 05:43:57;;;;;;;16.05;4.72;;;1.50;99.90;;;;;;4999610;28;20033;-57
2022/01/07 05:46:23;;;;;;;12.75;5.18;;;1.50;99.90;;;;;;5001714;28;20034;-60
2022/01/07 05:48:48;;;;;;;15.15;5.28;;;1.50;99.90;;;;;;5008317;28;20408;-59
2022/01/07 05:51:14;;;;;;;13.10;5.78;;;1.50;99.90;;;;;;4999439;28;20075;-60
2022/01/07 05:53:40;;;;;;;16.73;5.47;;;1.50;99.90;;;;;;5007862;28;20034;-59
2022/01/07 05:56:06;;;;;;;17.70;5.97;;;1.60;99.90;;;;;;5004515;28;20023;-59
2022/01/07 05:58:32;;;;;;;13.93;5.72;;;1.60;99.90;;;;;;5008954;28;20026;-59
2022/01/07 06:00:58;;;;;;;14.60;5.95;;;1.60;99.90;;;;;;4997818;28;20120;-60
2022/01/07 06:03:24;;;;;;;17.52;5.63;;;1.60;99.90;;;;;;5007004;28;20476;-59
2022/01/07 06:05:49;;;;;;;19.95;6.05;;;1.60;99.90;;;;;;5007166;28;20030;-60
2022/01/07 06:08:15;;;;;;;16.45;6.28;;;1.60;99.90;;;;;;5003674;28;20474;-60
2022/01/07 06:10:41;;;;;;;17.10;6.05;;;1.60;99.90;;;;;;5011501;28;20038;-60
2022/01/07 06:13:06;;;;;;;21.17;5.53;;;1.60;99.90;;;;;;5007213;28;20045;-59
2022/01/07 06:15:32;;;;;;;19.45;5.28;;;1.60;99.90;;;;;;5006234;28;20076;-60
2022/01/07 06:17:59;;;;;;;19.70;6.28;;;1.60;99.90;;;;;;5029036;28;20045;-59
2022/01/07 06:20:25;;;;;;;21.60;6.10;;;1.70;99.90;;;;;;5007131;28;20036;-59
2022/01/07 06:22:51;;;;;;;10.00;5.15;;;1.60;99.90;;;;;;5013364;28;20029;-59
2022/01/07 06:25:18;;;;;;;11.20;5.00;;;1.70;99.90;;;;;;5007238;28;20018;-60
2022/01/07 06:27:43;;;;;;;16.15;5.45;;;1.60;99.90;;;;;;5006442;28;20026;-59
2022/01/07 06:30:10;;;;;;;12.93;5.75;;;1.60;99.90;;;;;;5012792;28;20117;-60
2022/01/07 06:32:35;;;;;;;11.32;5.10;;;1.60;99.90;;;;;;5015021;28;20515;-62
2022/01/07 06:35:02;;;;;;;18.83;6.25;;;1.60;99.90;;;;;;5012845;28;20087;-58
2022/01/07 06:37:28;;;;;;;21.58;6.57;;;1.60;99.90;;;;;;5012887;28;20038;-62
2022/01/07 06:39:54;;;;;;;22.35;9.13;;;1.50;99.90;;;;;;5003776;28;20037;-61
2022/01/07 06:42:20;;;;;;;37.28;13.63;;;1.60;99.90;;;;;;5010399;28;20452;-61
2022/01/07 06:44:46;;;;;;;15.80;6.68;;;1.60;99.90;;;;;;5010979;28;20049;-58
2022/01/07 06:47:11;;;;;;;20.13;7.90;;;1.50;99.90;;;;;;5006963;28;20052;-60
2022/01/07 06:49:37;;;;;;;15.20;7.15;;;1.60;99.90;;;;;;5012930;28;20061;-59
2022/01/07 06:52:03;;;;;;;19.42;8.68;;;1.50;99.90;;;;;;5009022;28;20116;-62
2022/01/07 06:54:28;;;;;;;14.77;5.78;;;1.50;99.90;;;;;;5012585;28;20026;-63
2022/01/07 06:56:54;;;;;;;17.02;6.47;;;1.50;99.90;;;;;;5010900;28;20038;-61
2022/01/07 06:59:20;;;;;;;19.77;6.60;;;1.50;99.90;;;;;;5011253;28;20034;-61
2022/01/07 07:01:47;;;;;;;18.27;6.20;;;1.50;99.90;;;;;;5008591;28;20030;-60
2022/01/07 07:04:14;;;;;;;11.48;5.75;;;1.50;99.90;;;;;;5010267;28;20144;-63
2022/01/07 07:06:39;;;;;;;11.93;5.57;;;1.50;99.90;;;;;;5013382;28;20422;-63
2022/01/07 07:09:05;;;;;;;11.73;4.55;;;1.50;99.90;;;;;;5016639;28;20036;-61
2022/01/07 07:11:31;;;;;;;15.77;5.20;;;1.50;99.90;;;;;;5006488;28;20116;-61
2022/01/07 07:13:56;;;;;;;14.85;5.47;;;1.50;99.90;;;;;;5014079;28;20044;-60
2022/01/07 07:16:22;;;;;;;13.30;4.88;;;1.50;99.90;;;;;;5007880;28;20029;-61
2022/01/07 07:18:48;;;;;;;11.27;4.70;;;1.50;99.90;;;;;;5009558;28;20022;-60
2022/01/07 07:21:14;;;;;;;16.83;6.00;;;1.50;99.90;;;;;;5002905;28;20034;-59
2022/01/07 07:23:40;;;;;;;14.43;5.15;;;1.60;99.90;;;;;;5010119;28;20109;-62
2022/01/07 07:26:05;;;;;;;17.48;5.07;;;1.50;99.90;;;;;;5009612;28;20088;-61
2022/01/07 07:28:33;;;;;;;15.02;5.55;;;1.50;99.90;;;;;;5012543;28;20029;-59
2022/01/07 07:31:01;;;;;;;10.80;5.18;;;1.50;99.90;;;;;;5009045;28;20081;-62
2022/01/07 07:39:10;;;;;;;21.40;5.00;;;1.50;99.90;;;;;;4921672;29;20127;-61
2022/01/07 07:41:37;;;;;;;17.27;5.50;;;1.60;99.90;;;;;;5001081;28;20514;-60
2022/01/07 07:44:04;;;;;;;18.38;6.63;;;1.60;99.90;;;;;;5012209;28;20143;-62
2022/01/07 07:46:32;;;;;;;16.75;7.53;;;1.60;99.90;;;;;;5011177;28;20041;-61
2022/01/07 07:49:02;;;;;;;19.65;6.00;;;1.60;99.90;;;;;;5012105;28;20121;-60
2022/01/07 07:51:28;;;;;;;18.52;6.40;;;1.60;99.90;;;;;;5007061;28;20274;-62
2022/01/07 07:53:54;;;;;;;19.50;5.35;;;1.60;99.90;;;;;;5002629;28;20038;-61
2022/01/07 07:56:20;;;;;;;18.05;6.10;;;1.60;99.90;;;;;;5010747;28;20388;-63
2022/01/07 07:58:46;;;;;;;14.70;5.72;;;1.60;99.90;;;;;;5011623;28;20061;-60
2022/01/07 08:01:12;;;;;;;12.98;5.18;;;1.60;99.90;;;;;;5015151;28;20049;-59
2022/01/07 08:03:41;;;;;;;14.60;5.43;;;1.70;99.90;;;;;;5013131;28;20080;-62
2022/01/07 08:06:07;;;;;;;14.40;6.63;;;1.70;99.90;;;;;;5016468;28;20026;-60
2022/01/07 08:08:33;;;;;;;17.45;5.40;;;1.80;99.90;;;;;;5010713;28;20129;-62
2022/01/07 08:11:02;;;;;;;22.30;9.13;;;1.80;99.90;;;;;;5007886;28;20097;-63
2022/01/07 08:16:00;;;;;;;13.27;6.35;;;1.80;99.90;;;;;;5014344;28;20064;-62
2022/01/07 08:18:27;;;;;;;15.10;5.88;;;1.80;99.90;;;;;;4989352;28;20041;-61
2022/01/07 08:20:54;;;;;;;9.68;4.63;;;1.90;99.90;;;;;;5019786;28;20026;-62
2022/01/07 08:23:22;;;;;;;28.52;11.02;;;1.90;99.90;;;;;;5021380;28;20022;-62
2022/01/07 08:25:48;;;;;;;25.48;10.02;;;1.90;99.90;;;;;;5009796;28;20415;-62
2022/01/07 08:28:15;;;;;;;17.70;8.40;;;1.90;99.90;;;;;;5010120;28;20097;-60
2022/01/07 08:36:10;;;;;;;14.57;4.85;;;1.90;99.90;;;;;;5011310;28;20044;-61
2022/01/07 08:38:36;;;;;;;13.50;4.63;;;2.00;99.90;;;;;;5008053;28;20459;-60
2022/01/07 08:41:02;;;;;;;10.43;5.05;;;2.00;99.90;;;;;;5006368;28;20095;-60
2022/01/07 08:43:28;;;;;;;12.93;4.32;;;2.00;99.90;;;;;;5008458;28;20080;-60
2022/01/07 08:45:53;;;;;;;12.13;4.50;;;2.10;99.90;;;;;;5009960;28;20471;-60
2022/01/07 08:48:19;;;;;;;9.80;4.82;;;2.10;99.90;;;;;;5005836;28;20101;-61
2022/01/07 08:50:45;;;;;;;13.13;6.07;;;2.10;99.90;;;;;;5004662;28;20129;-62
2022/01/07 08:53:12;;;;;;;15.05;7.88;;;2.20;99.90;;;;;;5000991;28;20084;-62
2022/01/07 08:55:38;;;;;;;11.93;6.63;;;2.10;99.90;;;;;;5009587;28;20033;-63
2022/01/07 08:58:04;;;;;;;14.13;6.30;;;2.20;99.90;;;;;;5010176;28;20041;-62
2022/01/07 09:00:30;;;;;;;11.55;4.47;;;2.20;99.90;;;;;;5009617;28;20560;-62
2022/01/07 09:02:56;;;;;;;8.23;3.70;;;2.20;99.90;;;;;;5008769;28;20088;-62
2022/01/07 09:05:22;;;;;;;9.50;4.68;;;2.20;99.90;;;;;;5007253;28;20034;-63
2022/01/07 09:07:47;;;;;;;18.13;6.45;;;2.20;99.90;;;;;;4997295;28;20057;-63
2022/01/07 09:10:13;;;;;;;6.75;3.47;;;2.10;99.90;;;;;;5003871;28;20053;-62
2022/01/07 09:12:38;;;;;;;13.60;4.63;;;2.10;99.90;;;;;;5003286;28;20093;-62
2022/01/07 09:15:05;;;;;;;10.57;4.35;;;2.10;99.90;;;;;;5006534;28;20109;-63
2022/01/07 09:17:32;;;;;;;18.95;7.05;;;2.00;99.90;;;;;;5009997;28;20079;-63
2022/01/07 09:19:59;;;;;;;9.48;4.88;;;2.10;99.90;;;;;;4996280;28;20100;-60
2022/01/07 09:22:25;;;;;;;10.68;3.95;;;2.10;99.90;;;;;;5004001;28;20499;-62
2022/01/07 09:24:50;;;;;;;11.82;5.63;;;2.10;99.90;;;;;;4997251;28;20031;-61
2022/01/07 09:27:16;;;;;;;14.20;6.00;;;2.10;99.90;;;;;;5010010;28;20107;-62
2022/01/07 09:29:41;;;;;;;8.68;4.53;;;2.20;99.90;;;;;;5008944;28;20037;-62
2022/01/07 09:32:07;;;;;;;15.25;4.03;;;2.20;99.90;;;;;;5010482;28;20099;-62
2022/01/07 09:34:33;;;;;;;6.03;3.13;;;2.30;99.90;;;;;;5005909;28;20029;-67
2022/01/07 09:36:58;;;;;;;6.68;3.88;;;2.30;99.90;;;;;;5001403;28;20073;-60
2022/01/07 09:39:24;;;;;;;14.98;4.68;;;2.40;99.90;;;;;;5005337;28;20109;-60
2022/01/07 09:41:49;;;;;;;12.38;4.35;;;2.40;99.90;;;;;;5008751;28;20022;-63
2022/01/07 09:44:15;;;;;;;7.88;2.97;;;2.50;99.90;;;;;;5013624;28;20030;-62
2022/01/07 09:46:42;;;;;;;6.30;3.45;;;2.50;99.90;;;;;;5025359;28;20029;-61
2022/01/07 09:49:08;;;;;;;4.97;3.22;;;2.60;99.90;;;;;;5017024;28;20018;-63
2022/01/07 09:51:36;;;;;;;13.25;4.68;;;2.60;99.90;;;;;;5006444;28;20026;-62
2022/01/07 09:54:07;;;;;;;28.20;9.95;;;2.70;99.90;;;;;;5015600;28;20417;-60
2022/01/07 09:56:33;;;;;;;29.65;12.35;;;2.70;99.90;;;;;;5026481;28;20040;-63
2022/01/07 09:59:01;;;;;;;165.05;53.85;;;2.70;99.90;;;;;;5011573;28;20030;-62
2022/01/07 10:01:27;;;;;;;35.17;11.80;;;2.60;99.90;;;;;;5009531;28;20026;-62
2022/01/07 10:03:52;;;;;;;8.32;3.72;;;2.70;99.90;;;;;;5008538;28;20036;-62
2022/01/07 10:06:27;;;;;;;6.97;3.25;;;2.70;99.90;;;;;;5009775;28;20034;-62
2022/01/07 10:09:10;;;;;;;7.28;2.67;;;2.80;99.90;;;;;;5007049;28;20063;-62
2022/01/07 10:11:36;;;;;;;9.77;3.20;;;2.80;99.90;;;;;;4996704;28;20052;-62
2022/01/07 10:14:21;;;;;;;7.93;3.08;;;3.00;99.90;;;;;;5006345;28;20034;-62
2022/01/07 10:16:55;;;;;;;7.30;2.60;;;3.10;99.90;;;;;;5008070;28;20033;-62
2022/01/07 10:19:34;;;;;;;6.80;2.85;;;3.20;99.90;;;;;;5009204;28;20049;-62
2022/01/07 10:22:05;;;;;;;9.98;3.78;;;3.30;99.90;;;;;;5009945;28;20087;-60
2022/01/07 10:24:31;;;;;;;10.27;3.40;;;3.40;99.90;;;;;;4997049;28;20081;-62
2022/01/07 10:27:14;;;;;;;6.93;3.22;;;3.40;99.90;;;;;;5009861;28;20030;-63
2022/01/07 10:29:41;;;;;;;6.22;3.83;;;3.40;99.90;;;;;;5007652;28;20406;-62
2022/01/07 10:32:24;;;;;;;5.70;2.97;;;3.40;99.90;;;;;;5022618;28;20025;-62
2022/01/07 10:35:17;;;;;;;4.80;2.75;;;3.40;99.90;;;;;;5007780;28;20422;-62
2022/01/07 10:37:50;;;;;;;4.78;2.45;;;3.40;99.90;;;;;;5011729;28;20503;-62
2022/01/07 10:40:22;;;;;;;6.93;2.78;;;3.40;99.90;;;;;;5016014;28;20074;-62
2022/01/07 10:42:48;;;;;;;9.02;2.92;;;3.40;99.90;;;;;;4995714;28;20080;-62
2022/01/07 10:45:14;;;;;;;5.47;2.55;;;3.40;99.90;;;;;;5008074;28;20030;-61
2022/01/07 10:47:40;;;;;;;4.75;2.20;;;3.50;99.90;;;;;;5008783;28;20026;-62
2022/01/07 10:50:16;;;;;;;4.60;2.30;;;3.50;99.90;;;;;;5016625;28;20068;-61
2022/01/07 10:52:42;;;;;;;9.82;2.63;;;3.60;99.90;;;;;;5011981;28;20058;-61
2022/01/07 10:55:14;;;;;;;5.18;2.17;;;3.60;99.90;;;;;;5011910;28;20037;-62
2022/01/07 10:57:43;;;;;;;5.30;3.22;;;3.70;99.90;;;;;;5029239;28;20531;-63
2022/01/07 11:00:16;;;;;;;4.68;2.10;;;3.80;99.90;;;;;;5016528;28;20030;-63
2022/01/07 11:02:42;;;;;;;3.47;1.90;;;3.90;99.90;;;;;;5012604;28;20033;-63
2022/01/07 11:05:09;;;;;;;4.07;2.10;;;3.80;99.90;;;;;;5008206;28;20034;-62
2022/01/07 11:07:38;;;;;;;3.38;1.98;;;3.80;99.90;;;;;;5011009;28;20500;-63
2022/01/07 11:10:08;;;;;;;8.23;3.00;;;3.70;99.90;;;;;;5010512;28;20041;-59
2022/01/07 11:12:35;;;;;;;4.70;2.75;;;3.70;99.90;;;;;;5011880;28;20109;-62
2022/01/07 11:15:08;;;;;;;8.65;4.40;;;3.60;99.90;;;;;;5012503;28;20022;-63
2022/01/07 11:17:36;;;;;;;14.52;8.60;;;3.60;99.90;;;;;;5009158;28;20032;-61
2022/01/07 11:20:04;;;;;;;6.60;3.80;;;3.70;99.90;;;;;;5010269;28;20033;-62
2022/01/07 11:22:30;;;;;;;8.85;5.22;;;3.70;99.90;;;;;;5004358;28;20014;-60
2022/01/07 11:25:07;;;;;;;7.13;4.32;;;3.80;99.90;;;;;;5004268;28;20052;-62
2022/01/07 11:27:52;;;;;;;17.63;7.97;;;3.80;99.90;;;;;;5009152;28;20026;-56
2022/01/07 11:30:19;;;;;;;16.70;7.82;;;3.80;99.90;;;;;;5007781;28;20116;-60
2022/01/07 11:32:47;;;;;;;9.73;4.63;;;3.80;99.90;;;;;;5001445;28;20030;-59
2022/01/07 11:35:19;;;;;;;8.85;4.90;;;3.80;99.90;;;;;;5010945;28;20029;-60
2022/01/07 11:37:49;;;;;;;6.68;4.20;;;3.90;99.90;;;;;;5010946;28;20056;-60
2022/01/07 11:40:29;;;;;;;4.82;3.15;;;4.00;99.90;;;;;;5010012;28;20053;-60
2022/01/07 11:42:57;;;;;;;6.80;2.50;;;4.00;99.90;;;;;;5007900;28;20513;-59
2022/01/07 11:45:29;;;;;;;2.60;2.03;;;4.10;99.90;;;;;;5012985;28;20396;-60
2022/01/07 11:48:05;;;;;;;3.97;1.77;;;4.20;99.90;;;;;;5007873;28;20022;-59
2022/01/07 11:50:30;;;;;;;4.60;1.70;;;4.40;99.90;;;;;;5011753;28;20034;-60
2022/01/07 11:53:05;;;;;;;3.70;1.92;;;4.50;99.90;;;;;;5003875;28;20036;-60
2022/01/07 11:55:35;;;;;;;;;;;4.50;99.90;;;;;;5002928;28;20051;-61
2022/01/07 11:58:03;;;;;;;5.63;1.45;;;4.50;99.90;;;;;;5001461;28;19917;-59
2022/01/07 12:00:47;;;;;;;1.90;1.50;;;4.60;99.90;;;;;;4987154;28;20017;-61
2022/01/07 12:03:28;;;;;;;5.63;1.63;;;4.60;99.90;;;;;;5019771;28;20523;-58
2022/01/07 12:05:54;;;;;;;4.25;1.92;;;4.70;99.90;;;;;;5011377;28;20036;-60
2022/01/07 12:08:19;;;;;;;4.63;1.55;;;4.70;99.90;;;;;;4999314;28;20034;-60
2022/01/07 12:10:45;;;;;;;4.22;1.58;;;4.80;99.90;;;;;;5001871;28;20520;-61
2022/01/07 12:13:11;;;;;;;4.32;1.67;;;4.70;99.90;;;;;;5007754;28;20038;-59
2022/01/07 12:15:39;;;;;;;10.38;5.10;;;4.60;99.90;;;;;;5002963;28;20160;-58
2022/01/07 12:18:09;;;;;;;16.98;9.75;;;4.50;99.90;;;;;;5009003;28;20081;-60
2022/01/07 12:20:50;;;;;;;3.70;2.38;;;4.40;99.90;;;;;;5010191;28;20026;-59
2022/01/07 12:23:21;;;;;;;5.18;2.90;;;4.40;99.90;;;;;;5009047;28;20025;-60
2022/01/07 12:25:50;;;;;;;3.67;2.33;;;4.30;99.90;;;;;;5008952;28;20041;-60
2022/01/07 12:28:16;;;;;;;3.95;2.00;;;4.30;99.90;;;;;;5008468;28;20045;-57
2022/01/07 12:30:43;;;;;;;5.43;3.10;;;4.40;99.90;;;;;;4981689;28;20045;-60
2022/01/07 12:33:10;;;;;;;14.00;6.85;;;4.40;99.90;;;;;;5029896;28;20029;-60
2022/01/07 12:35:37;;;;;;;4.30;2.65;;;4.40;99.90;;;;;;5017787;28;20030;-59
2022/01/07 12:38:13;;;;;;;5.00;2.42;;;4.40;99.90;;;;;;5019956;28;20103;-62
2022/01/07 12:40:39;;;;;;;11.23;4.20;;;4.40;99.90;;;;;;5016036;28;20049;-60
2022/01/07 12:43:05;;;;;;;4.63;2.50;;;4.40;99.90;;;;;;5011653;28;20026;-61
2022/01/07 12:45:32;;;;;;;9.27;3.83;;;4.40;99.90;;;;;;5010560;28;20084;-61
2022/01/07 12:47:58;;;;;;;9.07;4.15;;;4.40;99.90;;;;;;5006241;28;20037;-63
2022/01/07 12:50:24;;;;;;;5.20;2.20;;;4.40;99.90;;;;;;5009046;28;20042;-59
2022/01/07 12:52:51;;;;;;;3.28;2.28;;;4.40;99.90;;;;;;5007126;28;20033;-62
2022/01/07 12:55:21;;;;;;;2.05;1.70;;;4.40;99.90;;;;;;5008815;28;20030;-65
2022/01/07 12:57:56;;;;;;;3.55;1.48;;;4.40;99.90;;;;;;5002678;28;20057;-59
2022/01/07 13:00:25;;;;;;;3.92;1.70;;;4.50;99.90;;;;;;5009717;28;20073;-61
2022/01/07 13:02:56;;;;;;;12.27;5.90;;;4.50;99.90;;;;;;5006234;28;20056;-60